sensor_id;sensor_type;location;lat;lon;timestamp;P1;durP1;ratioP1;P2;durP2;ratioP2
70410;SDS011;57832;46.038;11.398;2023-01-30T00:02:08;0.20;;;0.20;;
70410;SDS011;57832;46.038;11.398;2023-01-30T00:04:33;0.20;;;0.20;;
70410;SDS011;57832;46.038;11.398;2023-01-30T00:06:59;0.22;;;0.22;;
70410;SDS011;57832;46.038;11.398;2023-01-30T00:09:24;0.20;;;0.20;;
70410;SDS011;57832;46.038;11.398;2023-01-30T00:11:50;0.20;;;0.20;;
70410;SDS011;57832;46.038;11.398;2023-01-30T00:14:16;0.20;;;0.20;;
70410;SDS011;57832;46.038;11.398;2023-01-30T00:16:41;0.20;;;0.20;;
70410;SDS011;57832;46.038;11.398;2023-01-30T00:19:07;0.20;;;0.20;;
70410;SDS011;57832;46.038;11.398;2023-01-30T00:21:32;0.20;;;0.20;;
70410;SDS011;57832;46.038;11.398;2023-01-30T00:23:58;0.20;;;0.20;;
70410;SDS011;57832;46.038;11.398;2023-01-30T00:26:25;0.20;;;0.20;;
70410;SDS011;57832;46.038;11.398;2023-01-30T00:28:50;0.20;;;0.20;;
70410;SDS011;57832;46.038;11.398;2023-01-30T00:31:16;0.20;;;0.20;;
70410;SDS011;57832;46.038;11.398;2023-01-30T00:33:42;0.20;;;0.20;;
70410;SDS011;57832;46.038;11.398;2023-01-30T00:36:08;0.20;;;0.20;;
70410;SDS011;57832;46.038;11.398;2023-01-30T00:38:34;0.20;;;0.20;;
70410;SDS011;57832;46.038;11.398;2023-01-30T00:41:00;0.20;;;0.20;;
70410;SDS011;57832;46.038;11.398;2023-01-30T00:43:26;0.20;;;0.20;;
70410;SDS011;57832;46.038;11.398;2023-01-30T00:46:29;0.20;;;0.20;;
70410;SDS011;57832;46.038;11.398;2023-01-30T00:49:15;0.30;;;0.30;;
70410;SDS011;57832;46.038;11.398;2023-01-30T00:51:41;0.20;;;0.20;;
70410;SDS011;57832;46.038;11.398;2023-01-30T00:54:06;0.20;;;0.20;;
70410;SDS011;57832;46.038;11.398;2023-01-30T00:56:32;0.20;;;0.20;;
70410;SDS011;57832;46.038;11.398;2023-01-30T00:58:58;0.20;;;0.20;;
70410;SDS011;57832;46.038;11.398;2023-01-30T01:01:24;0.20;;;0.20;;
70410;SDS011;57832;46.038;11.398;2023-01-30T01:03:49;0.20;;;0.20;;
70410;SDS011;57832;46.038;11.398;2023-01-30T01:06:15;0.20;;;0.20;;
70410;SDS011;57832;46.038;11.398;2023-01-30T01:08:40;0.20;;;0.20;;
70410;SDS011;57832;46.038;11.398;2023-01-30T01:11:06;0.20;;;0.20;;
70410;SDS011;57832;46.038;11.398;2023-01-30T01:13:31;0.20;;;0.20;;
70410;SDS011;57832;46.038;11.398;2023-01-30T01:15:57;0.20;;;0.20;;
70410;SDS011;57832;46.038;11.398;2023-01-30T01:18:22;0.30;;;0.30;;
70410;SDS011;57832;46.038;11.398;2023-01-30T01:20:48;0.20;;;0.20;;
70410;SDS011;57832;46.038;11.398;2023-01-30T01:23:13;0.28;;;0.28;;
70410;SDS011;57832;46.038;11.398;2023-01-30T01:25:39;0.30;;;0.30;;
70410;SDS011;57832;46.038;11.398;2023-01-30T01:28:05;0.30;;;0.30;;
70410;SDS011;57832;46.038;11.398;2023-01-30T01:30:30;0.20;;;0.20;;
70410;SDS011;57832;46.038;11.398;2023-01-30T01:32:56;0.20;;;0.20;;
70410;SDS011;57832;46.038;11.398;2023-01-30T01:35:21;0.20;;;0.20;;
70410;SDS011;57832;46.038;11.398;2023-01-30T01:37:47;0.20;;;0.20;;
70410;SDS011;57832;46.038;11.398;2023-01-30T01:40:17;0.20;;;0.20;;
70410;SDS011;57832;46.038;11.398;2023-01-30T01:43:19;0.20;;;0.20;;
70410;SDS011;57832;46.038;11.398;2023-01-30T01:45:47;0.20;;;0.20;;
70410;SDS011;57832;46.038;11.398;2023-01-30T01:48:28;0.20;;;0.20;;
70410;SDS011;57832;46.038;11.398;2023-01-30T01:51:00;0.20;;;0.20;;
70410;SDS011;57832;46.038;11.398;2023-01-30T01:53:31;0.20;;;0.20;;
70410;SDS011;57832;46.038;11.398;2023-01-30T01:56:00;0.20;;;0.20;;
70410;SDS011;57832;46.038;11.398;2023-01-30T01:58:28;0.20;;;0.20;;
70410;SDS011;57832;46.038;11.398;2023-01-30T02:01:08;0.20;;;0.20;;
70410;SDS011;57832;46.038;11.398;2023-01-30T02:03:38;0.20;;;0.20;;
70410;SDS011;57832;46.038;11.398;2023-01-30T02:06:09;0.20;;;0.20;;
70410;SDS011;57832;46.038;11.398;2023-01-30T02:08:39;0.20;;;0.20;;
70410;SDS011;57832;46.038;11.398;2023-01-30T02:11:09;0.20;;;0.20;;
70410;SDS011;57832;46.038;11.398;2023-01-30T02:13:40;0.20;;;0.20;;
70410;SDS011;57832;46.038;11.398;2023-01-30T02:16:07;0.20;;;0.20;;
70410;SDS011;57832;46.038;11.398;2023-01-30T02:18:33;0.20;;;0.20;;
70410;SDS011;57832;46.038;11.398;2023-01-30T02:31:55;0.20;;;0.20;;
70410;SDS011;57832;46.038;11.398;2023-01-30T02:45:28;0.20;;;0.20;;
70410;SDS011;57832;46.038;11.398;2023-01-30T02:48:04;0.28;;;0.28;;
70410;SDS011;57832;46.038;11.398;2023-01-30T02:50:32;0.30;;;0.30;;
70410;SDS011;57832;46.038;11.398;2023-01-30T02:53:03;0.20;;;0.20;;
70410;SDS011;57832;46.038;11.398;2023-01-30T02:55:30;0.20;;;0.20;;
70410;SDS011;57832;46.038;11.398;2023-01-30T02:57:56;0.20;;;0.20;;
70410;SDS011;57832;46.038;11.398;2023-01-30T03:06:14;0.30;;;0.30;;
70410;SDS011;57832;46.038;11.398;2023-01-30T03:08:53;0.20;;;0.20;;
70410;SDS011;57832;46.038;11.398;2023-01-30T03:17:23;0.20;;;0.20;;
70410;SDS011;57832;46.038;11.398;2023-01-30T03:19:51;0.20;;;0.20;;
70410;SDS011;57832;46.038;11.398;2023-01-30T03:22:19;0.30;;;0.30;;
70410;SDS011;57832;46.038;11.398;2023-01-30T03:24:45;0.20;;;0.20;;
70410;SDS011;57832;46.038;11.398;2023-01-30T03:27:11;0.20;;;0.20;;
70410;SDS011;57832;46.038;11.398;2023-01-30T03:29:39;0.30;;;0.30;;
70410;SDS011;57832;46.038;11.398;2023-01-30T03:34:31;0.30;;;0.30;;
70410;SDS011;57832;46.038;11.398;2023-01-30T03:36:56;0.20;;;0.20;;
70410;SDS011;57832;46.038;11.398;2023-01-30T03:39:22;0.30;;;0.30;;
70410;SDS011;57832;46.038;11.398;2023-01-30T03:41:48;0.30;;;0.30;;
70410;SDS011;57832;46.038;11.398;2023-01-30T03:44:15;0.23;;;0.23;;
70410;SDS011;57832;46.038;11.398;2023-01-30T03:46:40;0.30;;;0.30;;
70410;SDS011;57832;46.038;11.398;2023-01-30T03:49:06;0.30;;;0.30;;
70410;SDS011;57832;46.038;11.398;2023-01-30T03:51:31;0.20;;;0.20;;
70410;SDS011;57832;46.038;11.398;2023-01-30T03:53:57;0.20;;;0.20;;
70410;SDS011;57832;46.038;11.398;2023-01-30T03:56:22;0.20;;;0.20;;
70410;SDS011;57832;46.038;11.398;2023-01-30T03:58:48;0.20;;;0.20;;
70410;SDS011;57832;46.038;11.398;2023-01-30T04:01:13;0.20;;;0.20;;
70410;SDS011;57832;46.038;11.398;2023-01-30T04:03:39;0.28;;;0.28;;
70410;SDS011;57832;46.038;11.398;2023-01-30T04:06:05;0.20;;;0.20;;
70410;SDS011;57832;46.038;11.398;2023-01-30T04:08:30;0.30;;;0.30;;
70410;SDS011;57832;46.038;11.398;2023-01-30T04:10:56;0.30;;;0.30;;
70410;SDS011;57832;46.038;11.398;2023-01-30T04:13:21;0.20;;;0.20;;
70410;SDS011;57832;46.038;11.398;2023-01-30T04:15:47;0.30;;;0.30;;
70410;SDS011;57832;46.038;11.398;2023-01-30T04:18:12;0.20;;;0.20;;
70410;SDS011;57832;46.038;11.398;2023-01-30T04:20:38;0.30;;;0.30;;
70410;SDS011;57832;46.038;11.398;2023-01-30T04:23:03;0.30;;;0.30;;
70410;SDS011;57832;46.038;11.398;2023-01-30T04:25:29;0.30;;;0.30;;
70410;SDS011;57832;46.038;11.398;2023-01-30T04:27:54;0.30;;;0.30;;
70410;SDS011;57832;46.038;11.398;2023-01-30T04:30:20;0.20;;;0.20;;
70410;SDS011;57832;46.038;11.398;2023-01-30T04:32:46;0.30;;;0.30;;
70410;SDS011;57832;46.038;11.398;2023-01-30T04:35:11;0.20;;;0.20;;
70410;SDS011;57832;46.038;11.398;2023-01-30T04:37:37;0.30;;;0.30;;
70410;SDS011;57832;46.038;11.398;2023-01-30T04:40:03;0.30;;;0.30;;
70410;SDS011;57832;46.038;11.398;2023-01-30T04:42:29;0.30;;;0.30;;
70410;SDS011;57832;46.038;11.398;2023-01-30T04:44:55;0.20;;;0.20;;
70410;SDS011;57832;46.038;11.398;2023-01-30T04:47:20;0.30;;;0.30;;
70410;SDS011;57832;46.038;11.398;2023-01-30T04:49:46;0.30;;;0.30;;
70410;SDS011;57832;46.038;11.398;2023-01-30T04:52:11;0.20;;;0.20;;
70410;SDS011;57832;46.038;11.398;2023-01-30T04:54:37;0.20;;;0.20;;
70410;SDS011;57832;46.038;11.398;2023-01-30T04:57:02;0.25;;;0.25;;
70410;SDS011;57832;46.038;11.398;2023-01-30T04:59:28;0.20;;;0.20;;
70410;SDS011;57832;46.038;11.398;2023-01-30T05:01:53;0.30;;;0.30;;
70410;SDS011;57832;46.038;11.398;2023-01-30T05:04:20;0.20;;;0.20;;
70410;SDS011;57832;46.038;11.398;2023-01-30T05:06:45;0.30;;;0.30;;
70410;SDS011;57832;46.038;11.398;2023-01-30T05:09:11;0.30;;;0.30;;
70410;SDS011;57832;46.038;11.398;2023-01-30T05:11:36;0.30;;;0.30;;
70410;SDS011;57832;46.038;11.398;2023-01-30T05:14:02;0.20;;;0.20;;
70410;SDS011;57832;46.038;11.398;2023-01-30T05:16:27;0.20;;;0.20;;
70410;SDS011;57832;46.038;11.398;2023-01-30T05:18:53;0.30;;;0.30;;
70410;SDS011;57832;46.038;11.398;2023-01-30T05:21:20;0.20;;;0.20;;
70410;SDS011;57832;46.038;11.398;2023-01-30T05:23:47;0.20;;;0.20;;
70410;SDS011;57832;46.038;11.398;2023-01-30T05:26:13;0.30;;;0.30;;
70410;SDS011;57832;46.038;11.398;2023-01-30T05:28:40;0.28;;;0.28;;
70410;SDS011;57832;46.038;11.398;2023-01-30T05:31:09;0.20;;;0.20;;
70410;SDS011;57832;46.038;11.398;2023-01-30T05:33:36;0.20;;;0.20;;
70410;SDS011;57832;46.038;11.398;2023-01-30T05:36:03;0.30;;;0.30;;
70410;SDS011;57832;46.038;11.398;2023-01-30T05:38:29;0.30;;;0.30;;
70410;SDS011;57832;46.038;11.398;2023-01-30T05:43:24;0.20;;;0.20;;
70410;SDS011;57832;46.038;11.398;2023-01-30T05:45:53;0.20;;;0.20;;
70410;SDS011;57832;46.038;11.398;2023-01-30T05:48:21;0.20;;;0.20;;
70410;SDS011;57832;46.038;11.398;2023-01-30T05:50:51;0.20;;;0.20;;
70410;SDS011;57832;46.038;11.398;2023-01-30T05:53:18;0.20;;;0.20;;
70410;SDS011;57832;46.038;11.398;2023-01-30T05:55:45;0.20;;;0.20;;
70410;SDS011;57832;46.038;11.398;2023-01-30T05:58:11;0.20;;;0.20;;
70410;SDS011;57832;46.038;11.398;2023-01-30T06:00:36;0.30;;;0.30;;
70410;SDS011;57832;46.038;11.398;2023-01-30T06:03:02;0.30;;;0.30;;
70410;SDS011;57832;46.038;11.398;2023-01-30T06:05:28;0.30;;;0.30;;
70410;SDS011;57832;46.038;11.398;2023-01-30T06:07:53;0.20;;;0.20;;
70410;SDS011;57832;46.038;11.398;2023-01-30T06:10:19;0.30;;;0.30;;
70410;SDS011;57832;46.038;11.398;2023-01-30T06:12:44;0.20;;;0.20;;
70410;SDS011;57832;46.038;11.398;2023-01-30T06:15:10;0.30;;;0.30;;
70410;SDS011;57832;46.038;11.398;2023-01-30T06:17:36;0.20;;;0.20;;
70410;SDS011;57832;46.038;11.398;2023-01-30T06:20:01;0.30;;;0.30;;
70410;SDS011;57832;46.038;11.398;2023-01-30T06:22:27;0.30;;;0.30;;
70410;SDS011;57832;46.038;11.398;2023-01-30T06:24:53;0.20;;;0.20;;
70410;SDS011;57832;46.038;11.398;2023-01-30T06:27:19;0.30;;;0.30;;
70410;SDS011;57832;46.038;11.398;2023-01-30T06:29:44;0.20;;;0.20;;
70410;SDS011;57832;46.038;11.398;2023-01-30T06:32:10;0.30;;;0.30;;
70410;SDS011;57832;46.038;11.398;2023-01-30T06:34:35;0.20;;;0.20;;
70410;SDS011;57832;46.038;11.398;2023-01-30T06:37:01;0.20;;;0.20;;
70410;SDS011;57832;46.038;11.398;2023-01-30T06:39:26;0.20;;;0.20;;
70410;SDS011;57832;46.038;11.398;2023-01-30T06:41:52;0.20;;;0.20;;
70410;SDS011;57832;46.038;11.398;2023-01-30T06:44:17;0.22;;;0.22;;
70410;SDS011;57832;46.038;11.398;2023-01-30T06:46:43;0.20;;;0.20;;
70410;SDS011;57832;46.038;11.398;2023-01-30T06:49:08;0.20;;;0.20;;
70410;SDS011;57832;46.038;11.398;2023-01-30T06:51:34;0.20;;;0.20;;
70410;SDS011;57832;46.038;11.398;2023-01-30T06:53:59;0.20;;;0.20;;
70410;SDS011;57832;46.038;11.398;2023-01-30T06:56:25;0.20;;;0.20;;
70410;SDS011;57832;46.038;11.398;2023-01-30T06:58:50;0.20;;;0.20;;
70410;SDS011;57832;46.038;11.398;2023-01-30T07:01:17;0.20;;;0.20;;
70410;SDS011;57832;46.038;11.398;2023-01-30T07:03:43;0.20;;;0.20;;
70410;SDS011;57832;46.038;11.398;2023-01-30T07:06:09;0.20;;;0.20;;
70410;SDS011;57832;46.038;11.398;2023-01-30T07:08:34;0.20;;;0.20;;
70410;SDS011;57832;46.038;11.398;2023-01-30T07:11:00;0.20;;;0.20;;
70410;SDS011;57832;46.038;11.398;2023-01-30T07:13:25;0.20;;;0.20;;
70410;SDS011;57832;46.038;11.398;2023-01-30T07:15:51;0.30;;;0.30;;
70410;SDS011;57832;46.038;11.398;2023-01-30T07:18:16;0.20;;;0.20;;
70410;SDS011;57832;46.038;11.398;2023-01-30T07:20:45;0.20;;;0.20;;
70410;SDS011;57832;46.038;11.398;2023-01-30T07:23:12;0.20;;;0.20;;
70410;SDS011;57832;46.038;11.398;2023-01-30T07:25:37;0.20;;;0.20;;
70410;SDS011;57832;46.038;11.398;2023-01-30T07:28:03;0.20;;;0.20;;
70410;SDS011;57832;46.038;11.398;2023-01-30T07:30:30;0.20;;;0.20;;
70410;SDS011;57832;46.038;11.398;2023-01-30T07:32:57;0.20;;;0.20;;
70410;SDS011;57832;46.038;11.398;2023-01-30T07:35:24;0.20;;;0.20;;
70410;SDS011;57832;46.038;11.398;2023-01-30T07:37:51;0.20;;;0.20;;
70410;SDS011;57832;46.038;11.398;2023-01-30T07:40:17;0.20;;;0.20;;
70410;SDS011;57832;46.038;11.398;2023-01-30T07:42:53;0.20;;;0.20;;
70410;SDS011;57832;46.038;11.398;2023-01-30T07:45:23;0.20;;;0.20;;
70410;SDS011;57832;46.038;11.398;2023-01-30T07:47:49;0.20;;;0.20;;
70410;SDS011;57832;46.038;11.398;2023-01-30T07:50:15;0.20;;;0.20;;
70410;SDS011;57832;46.038;11.398;2023-01-30T07:52:40;0.10;;;0.10;;
70410;SDS011;57832;46.038;11.398;2023-01-30T07:55:06;0.20;;;0.20;;
70410;SDS011;57832;46.038;11.398;2023-01-30T07:57:32;0.20;;;0.20;;
70410;SDS011;57832;46.038;11.398;2023-01-30T07:59:57;0.13;;;0.13;;
70410;SDS011;57832;46.038;11.398;2023-01-30T08:02:23;0.20;;;0.20;;
70410;SDS011;57832;46.038;11.398;2023-01-30T08:04:48;0.20;;;0.20;;
70410;SDS011;57832;46.038;11.398;2023-01-30T08:07:14;0.20;;;0.20;;
70410;SDS011;57832;46.038;11.398;2023-01-30T08:09:39;0.20;;;0.20;;
70410;SDS011;57832;46.038;11.398;2023-01-30T08:12:05;0.20;;;0.20;;
70410;SDS011;57832;46.038;11.398;2023-01-30T08:14:30;0.10;;;0.10;;
70410;SDS011;57832;46.038;11.398;2023-01-30T08:16:56;0.17;;;0.17;;
70410;SDS011;57832;46.038;11.398;2023-01-30T08:19:22;0.20;;;0.20;;
70410;SDS011;57832;46.038;11.398;2023-01-30T08:21:47;0.20;;;0.20;;
70410;SDS011;57832;46.038;11.398;2023-01-30T08:24:13;0.20;;;0.20;;
70410;SDS011;57832;46.038;11.398;2023-01-30T08:26:38;0.17;;;0.17;;
70410;SDS011;57832;46.038;11.398;2023-01-30T08:29:04;0.15;;;0.15;;
70410;SDS011;57832;46.038;11.398;2023-01-30T08:31:29;0.10;;;0.10;;
70410;SDS011;57832;46.038;11.398;2023-01-30T08:33:55;0.10;;;0.10;;
70410;SDS011;57832;46.038;11.398;2023-01-30T08:36:20;0.10;;;0.10;;
70410;SDS011;57832;46.038;11.398;2023-01-30T08:38:46;0.20;;;0.20;;
70410;SDS011;57832;46.038;11.398;2023-01-30T08:41:11;0.20;;;0.20;;
70410;SDS011;57832;46.038;11.398;2023-01-30T08:43:37;0.10;;;0.10;;
70410;SDS011;57832;46.038;11.398;2023-01-30T08:46:02;0.10;;;0.10;;
70410;SDS011;57832;46.038;11.398;2023-01-30T08:48:28;0.10;;;0.10;;
70410;SDS011;57832;46.038;11.398;2023-01-30T08:50:54;0.10;;;0.10;;
70410;SDS011;57832;46.038;11.398;2023-01-30T08:53:20;0.10;;;0.10;;
70410;SDS011;57832;46.038;11.398;2023-01-30T08:55:53;0.15;;;0.15;;
70410;SDS011;57832;46.038;11.398;2023-01-30T08:58:19;0.10;;;0.10;;
70410;SDS011;57832;46.038;11.398;2023-01-30T09:00:45;0.10;;;0.10;;
70410;SDS011;57832;46.038;11.398;2023-01-30T09:03:13;0.10;;;0.10;;
70410;SDS011;57832;46.038;11.398;2023-01-30T09:05:39;0.10;;;0.10;;
70410;SDS011;57832;46.038;11.398;2023-01-30T09:08:05;0.10;;;0.10;;
70410;SDS011;57832;46.038;11.398;2023-01-30T09:10:31;0.10;;;0.10;;
70410;SDS011;57832;46.038;11.398;2023-01-30T09:12:56;0.10;;;0.10;;
70410;SDS011;57832;46.038;11.398;2023-01-30T09:15:22;0.10;;;0.10;;
70410;SDS011;57832;46.038;11.398;2023-01-30T09:17:48;0.10;;;0.10;;
70410;SDS011;57832;46.038;11.398;2023-01-30T09:22:42;0.10;;;0.10;;
70410;SDS011;57832;46.038;11.398;2023-01-30T09:25:08;0.10;;;0.10;;
70410;SDS011;57832;46.038;11.398;2023-01-30T09:27:34;0.10;;;0.10;;
70410;SDS011;57832;46.038;11.398;2023-01-30T09:30:01;0.10;;;0.10;;
70410;SDS011;57832;46.038;11.398;2023-01-30T09:32:27;0.10;;;0.10;;
70410;SDS011;57832;46.038;11.398;2023-01-30T09:34:53;0.10;;;0.10;;
70410;SDS011;57832;46.038;11.398;2023-01-30T09:37:18;0.10;;;0.10;;
70410;SDS011;57832;46.038;11.398;2023-01-30T09:39:44;0.10;;;0.10;;
70410;SDS011;57832;46.038;11.398;2023-01-30T09:52:34;0.10;;;0.10;;
70410;SDS011;57832;46.038;11.398;2023-01-30T09:55:25;0.10;;;0.10;;
70410;SDS011;57832;46.038;11.398;2023-01-30T09:57:51;0.10;;;0.10;;
70410;SDS011;57832;46.038;11.398;2023-01-30T10:00:23;0.10;;;0.10;;
70410;SDS011;57832;46.038;11.398;2023-01-30T10:05:37;0.10;;;0.10;;
70410;SDS011;57832;46.038;11.398;2023-01-30T10:11:08;0.10;;;0.10;;
70410;SDS011;57832;46.038;11.398;2023-01-30T10:13:58;0.10;;;0.10;;
70410;SDS011;57832;46.038;11.398;2023-01-30T10:16:34;0.10;;;0.10;;
70410;SDS011;57832;46.038;11.398;2023-01-30T10:21:45;0.10;;;0.10;;
70410;SDS011;57832;46.038;11.398;2023-01-30T10:27:03;0.10;;;0.10;;
70410;SDS011;57832;46.038;11.398;2023-01-30T10:29:36;0.00;;;0.00;;
70410;SDS011;57832;46.038;11.398;2023-01-30T10:32:06;0.00;;;0.00;;
70410;SDS011;57832;46.038;11.398;2023-01-30T10:34:40;0.00;;;0.00;;
70410;SDS011;57832;46.038;11.398;2023-01-30T10:37:31;0.00;;;0.00;;
70410;SDS011;57832;46.038;11.398;2023-01-30T10:40:17;0.00;;;0.00;;
70410;SDS011;57832;46.038;11.398;2023-01-30T10:42:45;0.00;;;0.00;;
70410;SDS011;57832;46.038;11.398;2023-01-30T10:51:13;0.00;;;0.00;;
70410;SDS011;57832;46.038;11.398;2023-01-30T11:07:10;0.00;;;0.00;;
70410;SDS011;57832;46.038;11.398;2023-01-30T11:09:38;0.00;;;0.00;;
70410;SDS011;57832;46.038;11.398;2023-01-30T11:12:11;0.00;;;0.00;;
70410;SDS011;57832;46.038;11.398;2023-01-30T11:14:57;0.00;;;0.00;;
70410;SDS011;57832;46.038;11.398;2023-01-30T11:17:28;0.00;;;0.00;;
70410;SDS011;57832;46.038;11.398;2023-01-30T11:20:00;0.00;;;0.00;;
70410;SDS011;57832;46.038;11.398;2023-01-30T11:22:33;0.00;;;0.00;;
70410;SDS011;57832;46.038;11.398;2023-01-30T11:25:05;0.00;;;0.00;;
70410;SDS011;57832;46.038;11.398;2023-01-30T11:27:35;0.00;;;0.00;;
70410;SDS011;57832;46.038;11.398;2023-01-30T11:30:05;0.10;;;0.10;;
70410;SDS011;57832;46.038;11.398;2023-01-30T11:32:37;0.00;;;0.00;;
70410;SDS011;57832;46.038;11.398;2023-01-30T11:37:35;0.00;;;0.00;;
70410;SDS011;57832;46.038;11.398;2023-01-30T11:40:09;0.00;;;0.00;;
70410;SDS011;57832;46.038;11.398;2023-01-30T11:42:42;0.00;;;0.00;;
70410;SDS011;57832;46.038;11.398;2023-01-30T11:45:10;0.00;;;0.00;;
70410;SDS011;57832;46.038;11.398;2023-01-30T11:50:04;0.00;;;0.00;;
70410;SDS011;57832;46.038;11.398;2023-01-30T11:52:33;0.00;;;0.00;;
70410;SDS011;57832;46.038;11.398;2023-01-30T11:55:05;0.00;;;0.00;;
70410;SDS011;57832;46.038;11.398;2023-01-30T11:57:49;0.00;;;0.00;;
70410;SDS011;57832;46.038;11.398;2023-01-30T12:00:23;0.00;;;0.00;;
70410;SDS011;57832;46.038;11.398;2023-01-30T12:02:53;0.00;;;0.00;;
70410;SDS011;57832;46.038;11.398;2023-01-30T12:05:32;0.00;;;0.00;;
70410;SDS011;57832;46.038;11.398;2023-01-30T12:11:02;0.00;;;0.00;;
70410;SDS011;57832;46.038;11.398;2023-01-30T12:13:38;0.00;;;0.00;;
70410;SDS011;57832;46.038;11.398;2023-01-30T12:16:20;0.00;;;0.00;;
70410;SDS011;57832;46.038;11.398;2023-01-30T12:24:19;0.00;;;0.00;;
70410;SDS011;57832;46.038;11.398;2023-01-30T12:29:52;0.00;;;0.00;;
70410;SDS011;57832;46.038;11.398;2023-01-30T12:32:25;0.00;;;0.00;;
70410;SDS011;57832;46.038;11.398;2023-01-30T12:34:53;0.00;;;0.00;;
70410;SDS011;57832;46.038;11.398;2023-01-30T12:37:24;0.00;;;0.00;;
70410;SDS011;57832;46.038;11.398;2023-01-30T12:43:05;0.00;;;0.00;;
70410;SDS011;57832;46.038;11.398;2023-01-30T12:45:54;0.00;;;0.00;;
70410;SDS011;57832;46.038;11.398;2023-01-30T12:51:21;0.00;;;0.00;;
70410;SDS011;57832;46.038;11.398;2023-01-30T12:54:18;0.00;;;0.00;;
70410;SDS011;57832;46.038;11.398;2023-01-30T12:59:28;0.00;;;0.00;;
70410;SDS011;57832;46.038;11.398;2023-01-30T13:07:21;0.00;;;0.00;;
70410;SDS011;57832;46.038;11.398;2023-01-30T13:21:15;0.00;;;0.00;;
70410;SDS011;57832;46.038;11.398;2023-01-30T13:24:23;0.00;;;0.00;;
70410;SDS011;57832;46.038;11.398;2023-01-30T13:27:08;0.00;;;0.00;;
70410;SDS011;57832;46.038;11.398;2023-01-30T13:29:39;0.00;;;0.00;;
70410;SDS011;57832;46.038;11.398;2023-01-30T13:32:11;0.00;;;0.00;;
70410;SDS011;57832;46.038;11.398;2023-01-30T13:37:15;0.00;;;0.00;;
70410;SDS011;57832;46.038;11.398;2023-01-30T13:45:35;0.00;;;0.00;;
70410;SDS011;57832;46.038;11.398;2023-01-30T13:59:26;0.00;;;0.00;;
70410;SDS011;57832;46.038;11.398;2023-01-30T14:02:17;0.00;;;0.00;;
70410;SDS011;57832;46.038;11.398;2023-01-30T14:04:48;0.00;;;0.00;;
70410;SDS011;57832;46.038;11.398;2023-01-30T14:20:30;0.00;;;0.00;;
70410;SDS011;57832;46.038;11.398;2023-01-30T14:22:58;0.00;;;0.00;;
70410;SDS011;57832;46.038;11.398;2023-01-30T14:32:55;0.00;;;0.00;;
70410;SDS011;57832;46.038;11.398;2023-01-30T14:35:23;0.00;;;0.00;;
70410;SDS011;57832;46.038;11.398;2023-01-30T14:37:51;0.00;;;0.00;;
70410;SDS011;57832;46.038;11.398;2023-01-30T14:40:34;0.00;;;0.00;;
70410;SDS011;57832;46.038;11.398;2023-01-30T14:46:00;0.10;;;0.10;;
70410;SDS011;57832;46.038;11.398;2023-01-30T14:54:02;0.00;;;0.00;;
70410;SDS011;57832;46.038;11.398;2023-01-30T15:04:32;0.00;;;0.00;;
70410;SDS011;57832;46.038;11.398;2023-01-30T15:07:07;0.00;;;0.00;;
70410;SDS011;57832;46.038;11.398;2023-01-30T15:09:36;0.00;;;0.00;;
70410;SDS011;57832;46.038;11.398;2023-01-30T15:12:22;0.00;;;0.00;;
70410;SDS011;57832;46.038;11.398;2023-01-30T15:15:37;0.00;;;0.00;;
70410;SDS011;57832;46.038;11.398;2023-01-30T15:20:54;0.10;;;0.10;;
70410;SDS011;57832;46.038;11.398;2023-01-30T15:26:51;0.00;;;0.00;;
70410;SDS011;57832;46.038;11.398;2023-01-30T15:32:17;0.00;;;0.00;;
70410;SDS011;57832;46.038;11.398;2023-01-30T15:34:54;0.03;;;0.03;;
70410;SDS011;57832;46.038;11.398;2023-01-30T15:37:35;0.00;;;0.00;;
70410;SDS011;57832;46.038;11.398;2023-01-30T15:40:35;0.00;;;0.00;;
70410;SDS011;57832;46.038;11.398;2023-01-30T15:51:07;0.00;;;0.00;;
70410;SDS011;57832;46.038;11.398;2023-01-30T15:53:41;0.00;;;0.00;;
70410;SDS011;57832;46.038;11.398;2023-01-30T15:56:09;0.00;;;0.00;;
70410;SDS011;57832;46.038;11.398;2023-01-30T15:58:42;0.03;;;0.03;;
70410;SDS011;57832;46.038;11.398;2023-01-30T16:01:09;0.00;;;0.00;;
70410;SDS011;57832;46.038;11.398;2023-01-30T16:03:41;0.00;;;0.00;;
70410;SDS011;57832;46.038;11.398;2023-01-30T16:06:52;0.00;;;0.00;;
70410;SDS011;57832;46.038;11.398;2023-01-30T16:11:45;0.05;;;0.05;;
70410;SDS011;57832;46.038;11.398;2023-01-30T16:14:12;0.00;;;0.00;;
70410;SDS011;57832;46.038;11.398;2023-01-30T16:16:47;0.10;;;0.10;;
70410;SDS011;57832;46.038;11.398;2023-01-30T16:21:55;0.10;;;0.10;;
70410;SDS011;57832;46.038;11.398;2023-01-30T16:24:26;0.03;;;0.03;;
70410;SDS011;57832;46.038;11.398;2023-01-30T16:26:59;0.08;;;0.08;;
70410;SDS011;57832;46.038;11.398;2023-01-30T16:29:30;0.00;;;0.00;;
70410;SDS011;57832;46.038;11.398;2023-01-30T16:31:59;0.00;;;0.00;;
70410;SDS011;57832;46.038;11.398;2023-01-30T16:34:32;0.03;;;0.03;;
70410;SDS011;57832;46.038;11.398;2023-01-30T16:37:04;0.10;;;0.10;;
70410;SDS011;57832;46.038;11.398;2023-01-30T16:42:38;0.10;;;0.10;;
70410;SDS011;57832;46.038;11.398;2023-01-30T16:50:19;0.00;;;0.00;;
70410;SDS011;57832;46.038;11.398;2023-01-30T16:52:49;0.10;;;0.10;;
70410;SDS011;57832;46.038;11.398;2023-01-30T16:55:19;0.10;;;0.10;;
70410;SDS011;57832;46.038;11.398;2023-01-30T16:57:59;0.10;;;0.10;;
70410;SDS011;57832;46.038;11.398;2023-01-30T17:00:34;0.10;;;0.10;;
70410;SDS011;57832;46.038;11.398;2023-01-30T17:03:03;0.10;;;0.10;;
70410;SDS011;57832;46.038;11.398;2023-01-30T17:05:38;0.10;;;0.10;;
70410;SDS011;57832;46.038;11.398;2023-01-30T17:08:35;0.10;;;0.10;;
70410;SDS011;57832;46.038;11.398;2023-01-30T17:11:09;0.10;;;0.10;;
70410;SDS011;57832;46.038;11.398;2023-01-30T17:14:00;0.10;;;0.10;;
70410;SDS011;57832;46.038;11.398;2023-01-30T17:16:32;0.10;;;0.10;;
70410;SDS011;57832;46.038;11.398;2023-01-30T17:18:58;0.10;;;0.10;;
70410;SDS011;57832;46.038;11.398;2023-01-30T17:21:34;0.10;;;0.10;;
70410;SDS011;57832;46.038;11.398;2023-01-30T17:24:18;0.10;;;0.10;;
70410;SDS011;57832;46.038;11.398;2023-01-30T17:26:48;0.10;;;0.10;;
70410;SDS011;57832;46.038;11.398;2023-01-30T17:29:17;0.10;;;0.10;;
70410;SDS011;57832;46.038;11.398;2023-01-30T17:31:46;0.10;;;0.10;;
70410;SDS011;57832;46.038;11.398;2023-01-30T17:34:13;0.10;;;0.10;;
70410;SDS011;57832;46.038;11.398;2023-01-30T17:36:40;0.10;;;0.10;;
70410;SDS011;57832;46.038;11.398;2023-01-30T17:39:09;0.10;;;0.10;;
70410;SDS011;57832;46.038;11.398;2023-01-30T17:41:39;0.10;;;0.10;;
70410;SDS011;57832;46.038;11.398;2023-01-30T17:44:06;0.10;;;0.10;;
70410;SDS011;57832;46.038;11.398;2023-01-30T17:46:39;0.10;;;0.10;;
70410;SDS011;57832;46.038;11.398;2023-01-30T17:49:21;0.10;;;0.10;;
70410;SDS011;57832;46.038;11.398;2023-01-30T17:51:48;0.10;;;0.10;;
70410;SDS011;57832;46.038;11.398;2023-01-30T17:54:15;0.10;;;0.10;;
70410;SDS011;57832;46.038;11.398;2023-01-30T17:56:43;0.10;;;0.10;;
70410;SDS011;57832;46.038;11.398;2023-01-30T17:59:11;0.10;;;0.10;;
70410;SDS011;57832;46.038;11.398;2023-01-30T18:01:39;0.10;;;0.10;;
70410;SDS011;57832;46.038;11.398;2023-01-30T18:04:05;0.10;;;0.10;;
70410;SDS011;57832;46.038;11.398;2023-01-30T18:06:31;0.10;;;0.10;;
70410;SDS011;57832;46.038;11.398;2023-01-30T18:08:57;0.10;;;0.10;;
70410;SDS011;57832;46.038;11.398;2023-01-30T18:11:23;0.10;;;0.10;;
70410;SDS011;57832;46.038;11.398;2023-01-30T18:13:49;0.10;;;0.10;;
70410;SDS011;57832;46.038;11.398;2023-01-30T18:16:29;0.10;;;0.10;;
70410;SDS011;57832;46.038;11.398;2023-01-30T18:19:02;0.10;;;0.10;;